sensor_id;sensor_type;location;lat;lon;timestamp;temperature;humidity
34985;DHT22;21190;58.750;17.004;2022-12-18T00:00:58;-1.30;99.90
34985;DHT22;21190;58.750;17.004;2022-12-18T00:03:25;-1.30;99.90
34985;DHT22;21190;58.750;17.004;2022-12-18T00:05:52;-1.30;99.90
34985;DHT22;21190;58.750;17.004;2022-12-18T00:08:19;-1.30;99.90
34985;DHT22;21190;58.750;17.004;2022-12-18T00:10:46;-1.30;99.90
34985;DHT22;21190;58.750;17.004;2022-12-18T00:13:13;-1.30;99.90
34985;DHT22;21190;58.750;17.004;2022-12-18T00:15:40;-1.30;99.90
34985;DHT22;21190;58.750;17.004;2022-12-18T00:18:07;-1.30;99.90
34985;DHT22;21190;58.750;17.004;2022-12-18T00:20:38;-1.30;99.90
34985;DHT22;21190;58.750;17.004;2022-12-18T00:23:05;-1.30;99.90
34985;DHT22;21190;58.750;17.004;2022-12-18T00:25:33;-1.40;99.90
34985;DHT22;21190;58.750;17.004;2022-12-18T00:28:04;-1.20;99.90
34985;DHT22;21190;58.750;17.004;2022-12-18T00:30:31;-1.30;99.90
34985;DHT22;21190;58.750;17.004;2022-12-18T00:32:58;-1.30;99.90
34985;DHT22;21190;58.750;17.004;2022-12-18T00:35:30;-1.30;99.90
34985;DHT22;21190;58.750;17.004;2022-12-18T00:37:58;-1.30;99.90
34985;DHT22;21190;58.750;17.004;2022-12-18T00:40:24;-1.20;99.90
34985;DHT22;21190;58.750;17.004;2022-12-18T00:42:51;-1.30;99.90
34985;DHT22;21190;58.750;17.004;2022-12-18T00:45:25;-1.30;99.90
34985;DHT22;21190;58.750;17.004;2022-12-18T00:47:52;-1.30;99.90
34985;DHT22;21190;58.750;17.004;2022-12-18T00:50:19;-1.30;99.90
34985;DHT22;21190;58.750;17.004;2022-12-18T00:52:46;-1.30;99.90
34985;DHT22;21190;58.750;17.004;2022-12-18T00:55:13;-1.30;99.90
34985;DHT22;21190;58.750;17.004;2022-12-18T00:57:41;-1.30;99.90
34985;DHT22;21190;58.750;17.004;2022-12-18T01:00:10;-1.20;99.90
34985;DHT22;21190;58.750;17.004;2022-12-18T01:02:37;-1.20;99.90
34985;DHT22;21190;58.750;17.004;2022-12-18T01:05:05;-1.20;99.90
34985;DHT22;21190;58.750;17.004;2022-12-18T01:07:32;-1.20;99.90
34985;DHT22;21190;58.750;17.004;2022-12-18T01:09:59;-1.30;99.90
34985;DHT22;21190;58.750;17.004;2022-12-18T01:12:26;-1.20;99.90
34985;DHT22;21190;58.750;17.004;2022-12-18T01:14:53;-1.30;99.90
34985;DHT22;21190;58.750;17.004;2022-12-18T01:17:20;-1.30;99.90
34985;DHT22;21190;58.750;17.004;2022-12-18T01:19:48;-1.30;99.90
34985;DHT22;21190;58.750;17.004;2022-12-18T01:22:15;-1.30;99.90
34985;DHT22;21190;58.750;17.004;2022-12-18T01:24:42;-1.30;99.90
34985;DHT22;21190;58.750;17.004;2022-12-18T01:27:09;-1.30;99.90
34985;DHT22;21190;58.750;17.004;2022-12-18T01:29:36;-1.30;99.90
34985;DHT22;21190;58.750;17.004;2022-12-18T01:32:03;-1.30;99.90
34985;DHT22;21190;58.750;17.004;2022-12-18T01:34:30;-1.30;99.90
34985;DHT22;21190;58.750;17.004;2022-12-18T01:36:57;-1.30;99.90
34985;DHT22;21190;58.750;17.004;2022-12-18T01:39:25;-1.30;99.90
34985;DHT22;21190;58.750;17.004;2022-12-18T01:41:51;-1.40;99.90
34985;DHT22;21190;58.750;17.004;2022-12-18T01:49:52;-1.30;99.90
34985;DHT22;21190;58.750;17.004;2022-12-18T01:52:20;-1.30;99.90
34985;DHT22;21190;58.750;17.004;2022-12-18T01:54:48;-1.30;99.90
34985;DHT22;21190;58.750;17.004;2022-12-18T01:57:18;-1.30;99.90
34985;DHT22;21190;58.750;17.004;2022-12-18T01:59:46;-1.20;99.90
34985;DHT22;21190;58.750;17.004;2022-12-18T02:02:15;-1.30;99.90
34985;DHT22;21190;58.750;17.004;2022-12-18T02:04:43;-1.30;99.90
34985;DHT22;21190;58.750;17.004;2022-12-18T02:09:54;-1.30;99.90
34985;DHT22;21190;58.750;17.004;2022-12-18T02:12:27;-1.40;99.90
34985;DHT22;21190;58.750;17.004;2022-12-18T02:15:02;-1.40;99.90
34985;DHT22;21190;58.750;17.004;2022-12-18T02:17:36;-1.40;99.90
34985;DHT22;21190;58.750;17.004;2022-12-18T02:20:25;-1.30;99.90
34985;DHT22;21190;58.750;17.004;2022-12-18T02:23:04;-1.30;99.90
34985;DHT22;21190;58.750;17.004;2022-12-18T02:28:03;-1.40;99.90
34985;DHT22;21190;58.750;17.004;2022-12-18T02:30:31;-1.40;99.90
34985;DHT22;21190;58.750;17.004;2022-12-18T02:33:07;-1.50;99.90
34985;DHT22;21190;58.750;17.004;2022-12-18T02:35:35;-1.50;99.90
34985;DHT22;21190;58.750;17.004;2022-12-18T02:38:03;-1.50;99.90
34985;DHT22;21190;58.750;17.004;2022-12-18T02:40:30;-1.50;99.90
34985;DHT22;21190;58.750;17.004;2022-12-18T02:43:31;-1.50;99.90
34985;DHT22;21190;58.750;17.004;2022-12-18T02:45:54;-1.60;99.90
34985;DHT22;21190;58.750;17.004;2022-12-18T02:48:24;-1.70;99.90
34985;DHT22;21190;58.750;17.004;2022-12-18T02:50:54;-1.70;99.90
34985;DHT22;21190;58.750;17.004;2022-12-18T02:56:26;-1.70;99.90
34985;DHT22;21190;58.750;17.004;2022-12-18T02:59:02;-1.70;99.90
34985;DHT22;21190;58.750;17.004;2022-12-18T03:04:02;-1.90;99.90
34985;DHT22;21190;58.750;17.004;2022-12-18T03:06:38;-1.90;99.90
34985;DHT22;21190;58.750;17.004;2022-12-18T03:09:08;-2.00;99.90
34985;DHT22;21190;58.750;17.004;2022-12-18T03:11:37;-2.00;99.90
34985;DHT22;21190;58.750;17.004;2022-12-18T03:14:24;-2.00;99.90
34985;DHT22;21190;58.750;17.004;2022-12-18T03:16:52;-2.00;99.90
34985;DHT22;21190;58.750;17.004;2022-12-18T03:19:21;-2.00;99.90
34985;DHT22;21190;58.750;17.004;2022-12-18T03:21:51;-2.00;99.90
34985;DHT22;21190;58.750;17.004;2022-12-18T03:24:19;-2.00;99.90
34985;DHT22;21190;58.750;17.004;2022-12-18T03:26:49;-2.10;99.90
34985;DHT22;21190;58.750;17.004;2022-12-18T03:29:19;-2.20;99.90
34985;DHT22;21190;58.750;17.004;2022-12-18T03:31:49;-2.20;99.90
34985;DHT22;21190;58.750;17.004;2022-12-18T03:34:19;-2.20;99.90
34985;DHT22;21190;58.750;17.004;2022-12-18T03:36:48;-2.20;99.90
34985;DHT22;21190;58.750;17.004;2022-12-18T03:39:15;-2.20;99.90
34985;DHT22;21190;58.750;17.004;2022-12-18T03:47:12;-2.30;99.90
34985;DHT22;21190;58.750;17.004;2022-12-18T03:50:00;-2.30;99.90
34985;DHT22;21190;58.750;17.004;2022-12-18T03:52:37;-2.30;99.90
34985;DHT22;21190;58.750;17.004;2022-12-18T03:55:05;-2.30;99.90
34985;DHT22;21190;58.750;17.004;2022-12-18T03:57:33;-2.40;99.90
34985;DHT22;21190;58.750;17.004;2022-12-18T04:00:03;-2.20;99.90
34985;DHT22;21190;58.750;17.004;2022-12-18T04:02:30;-2.30;99.90
34985;DHT22;21190;58.750;17.004;2022-12-18T04:04:59;-2.30;99.90
34985;DHT22;21190;58.750;17.004;2022-12-18T04:07:28;-2.40;99.90
34985;DHT22;21190;58.750;17.004;2022-12-18T04:09:56;-2.40;99.90
34985;DHT22;21190;58.750;17.004;2022-12-18T04:12:24;-2.30;99.90
34985;DHT22;21190;58.750;17.004;2022-12-18T04:14:51;-2.40;99.90
34985;DHT22;21190;58.750;17.004;2022-12-18T04:17:18;-2.40;99.90
34985;DHT22;21190;58.750;17.004;2022-12-18T04:19:45;-2.40;99.90
34985;DHT22;21190;58.750;17.004;2022-12-18T04:22:12;-2.40;99.90
34985;DHT22;21190;58.750;17.004;2022-12-18T04:24:39;-2.50;99.90
34985;DHT22;21190;58.750;17.004;2022-12-18T04:27:06;-2.40;99.90
34985;DHT22;21190;58.750;17.004;2022-12-18T04:29:33;-2.50;99.90
34985;DHT22;21190;58.750;17.004;2022-12-18T04:32:00;-2.40;99.90
34985;DHT22;21190;58.750;17.004;2022-12-18T04:34:28;-2.40;99.90
34985;DHT22;21190;58.750;17.004;2022-12-18T04:36:55;-2.40;99.90
34985;DHT22;21190;58.750;17.004;2022-12-18T04:39:24;-2.40;99.90
34985;DHT22;21190;58.750;17.004;2022-12-18T04:41:51;-2.40;99.90
34985;DHT22;21190;58.750;17.004;2022-12-18T04:44:18;-2.40;99.90
34985;DHT22;21190;58.750;17.004;2022-12-18T04:46:45;-2.40;99.90
34985;DHT22;21190;58.750;17.004;2022-12-18T04:49:12;-2.40;99.90
34985;DHT22;21190;58.750;17.004;2022-12-18T04:51:39;-2.50;99.90
34985;DHT22;21190;58.750;17.004;2022-12-18T04:54:06;-2.50;99.90
34985;DHT22;21190;58.750;17.004;2022-12-18T04:56:33;-2.50;99.90
34985;DHT22;21190;58.750;17.004;2022-12-18T04:59:00;-2.50;99.90
34985;DHT22;21190;58.750;17.004;2022-12-18T05:01:27;-2.50;99.90
34985;DHT22;21190;58.750;17.004;2022-12-18T05:04:00;-2.50;99.90
34985;DHT22;21190;58.750;17.004;2022-12-18T05:06:28;-2.50;99.90
34985;DHT22;21190;58.750;17.004;2022-12-18T05:08:55;-2.40;99.90
34985;DHT22;21190;58.750;17.004;2022-12-18T05:11:22;-2.40;99.90
34985;DHT22;21190;58.750;17.004;2022-12-18T05:13:49;-2.40;99.90
34985;DHT22;21190;58.750;17.004;2022-12-18T05:16:16;-2.40;99.90
34985;DHT22;21190;58.750;17.004;2022-12-18T05:18:43;-2.40;99.90
34985;DHT22;21190;58.750;17.004;2022-12-18T05:21:10;-2.40;99.90
34985;DHT22;21190;58.750;17.004;2022-12-18T05:23:37;-2.40;99.90
34985;DHT22;21190;58.750;17.004;2022-12-18T05:26:05;-2.40;99.90
34985;DHT22;21190;58.750;17.004;2022-12-18T05:28:32;-2.40;99.90
34985;DHT22;21190;58.750;17.004;2022-12-18T05:31:00;-2.30;99.90
34985;DHT22;21190;58.750;17.004;2022-12-18T05:33:29;-2.30;99.90
34985;DHT22;21190;58.750;17.004;2022-12-18T05:35:57;-2.30;99.90
34985;DHT22;21190;58.750;17.004;2022-12-18T05:38:25;-2.30;99.90
34985;DHT22;21190;58.750;17.004;2022-12-18T05:40:52;-2.20;99.90
34985;DHT22;21190;58.750;17.004;2022-12-18T05:43:20;-2.20;99.90
34985;DHT22;21190;58.750;17.004;2022-12-18T05:45:48;-2.10;99.90
34985;DHT22;21190;58.750;17.004;2022-12-18T05:48:15;-2.00;99.90
34985;DHT22;21190;58.750;17.004;2022-12-18T05:50:44;-2.10;99.90
34985;DHT22;21190;58.750;17.004;2022-12-18T05:53:14;-2.00;99.90
34985;DHT22;21190;58.750;17.004;2022-12-18T05:55:42;-1.90;99.90
34985;DHT22;21190;58.750;17.004;2022-12-18T05:58:10;-1.90;99.90
34985;DHT22;21190;58.750;17.004;2022-12-18T06:00:37;-1.90;99.90
34985;DHT22;21190;58.750;17.004;2022-12-18T06:03:07;-1.90;99.90
34985;DHT22;21190;58.750;17.004;2022-12-18T06:05:35;-1.90;99.90
34985;DHT22;21190;58.750;17.004;2022-12-18T06:08:02;-1.90;99.90
34985;DHT22;21190;58.750;17.004;2022-12-18T06:10:29;-1.90;99.90
34985;DHT22;21190;58.750;17.004;2022-12-18T06:12:56;-1.80;99.90
34985;DHT22;21190;58.750;17.004;2022-12-18T06:15:23;-1.80;99.90
34985;DHT22;21190;58.750;17.004;2022-12-18T06:17:51;-1.80;99.90
34985;DHT22;21190;58.750;17.004;2022-12-18T06:20:18;-1.80;99.90
34985;DHT22;21190;58.750;17.004;2022-12-18T06:22:45;-1.80;99.90
34985;DHT22;21190;58.750;17.004;2022-12-18T06:25:12;-1.80;99.90
34985;DHT22;21190;58.750;17.004;2022-12-18T06:27:39;-1.70;99.90
34985;DHT22;21190;58.750;17.004;2022-12-18T06:30:07;-1.70;99.90
34985;DHT22;21190;58.750;17.004;2022-12-18T06:32:35;-1.60;99.90
34985;DHT22;21190;58.750;17.004;2022-12-18T06:35:02;-1.70;99.90
34985;DHT22;21190;58.750;17.004;2022-12-18T06:37:30;-1.60;99.90
34985;DHT22;21190;58.750;17.004;2022-12-18T06:39:57;-1.60;99.90
34985;DHT22;21190;58.750;17.004;2022-12-18T06:42:24;-1.70;99.90
34985;DHT22;21190;58.750;17.004;2022-12-18T06:44:51;-1.70;99.90
34985;DHT22;21190;58.750;17.004;2022-12-18T06:47:18;-1.60;99.90
34985;DHT22;21190;58.750;17.004;2022-12-18T06:49:45;-1.60;99.90
34985;DHT22;21190;58.750;17.004;2022-12-18T06:52:12;-1.60;99.90
34985;DHT22;21190;58.750;17.004;2022-12-18T06:54:39;-1.60;99.90
34985;DHT22;21190;58.750;17.004;2022-12-18T06:57:06;-1.60;99.90
34985;DHT22;21190;58.750;17.004;2022-12-18T06:59:33;-1.60;99.90
34985;DHT22;21190;58.750;17.004;2022-12-18T07:02:00;-1.60;99.90
34985;DHT22;21190;58.750;17.004;2022-12-18T07:04:28;-1.60;99.90
34985;DHT22;21190;58.750;17.004;2022-12-18T07:06:56;-1.50;99.90
34985;DHT22;21190;58.750;17.004;2022-12-18T07:09:24;-1.50;99.90
34985;DHT22;21190;58.750;17.004;2022-12-18T07:11:52;-1.50;99.90
34985;DHT22;21190;58.750;17.004;2022-12-18T07:14:19;-1.40;99.90
34985;DHT22;21190;58.750;17.004;2022-12-18T07:16:46;-1.40;99.90
34985;DHT22;21190;58.750;17.004;2022-12-18T07:19:13;-1.40;99.90
34985;DHT22;21190;58.750;17.004;2022-12-18T07:21:40;-1.30;99.90
34985;DHT22;21190;58.750;17.004;2022-12-18T07:24:07;-1.20;99.90
34985;DHT22;21190;58.750;17.004;2022-12-18T07:26:34;-1.10;99.90
34985;DHT22;21190;58.750;17.004;2022-12-18T07:29:01;-1.10;99.90
34985;DHT22;21190;58.750;17.004;2022-12-18T07:31:28;-1.10;99.90
34985;DHT22;21190;58.750;17.004;2022-12-18T07:33:55;-1.00;99.90
34985;DHT22;21190;58.750;17.004;2022-12-18T07:36:22;-0.90;99.90
34985;DHT22;21190;58.750;17.004;2022-12-18T07:38:49;-0.80;99.90
34985;DHT22;21190;58.750;17.004;2022-12-18T07:41:16;-0.80;99.90
34985;DHT22;21190;58.750;17.004;2022-12-18T07:43:43;-0.70;99.90
34985;DHT22;21190;58.750;17.004;2022-12-18T07:46:10;-0.60;99.90
34985;DHT22;21190;58.750;17.004;2022-12-18T07:48:39;-0.50;99.90
34985;DHT22;21190;58.750;17.004;2022-12-18T07:51:06;-0.40;99.90
34985;DHT22;21190;58.750;17.004;2022-12-18T07:53:33;-0.40;99.90
34985;DHT22;21190;58.750;17.004;2022-12-18T07:56:02;-0.30;99.90
34985;DHT22;21190;58.750;17.004;2022-12-18T07:58:50;-0.20;99.90
34985;DHT22;21190;58.750;17.004;2022-12-18T08:01:17;-0.10;99.90
34985;DHT22;21190;58.750;17.004;2022-12-18T08:03:44;0.00;99.90
34985;DHT22;21190;58.750;17.004;2022-12-18T08:06:11;0.10;99.90
34985;DHT22;21190;58.750;17.004;2022-12-18T08:08:38;0.10;99.90
34985;DHT22;21190;58.750;17.004;2022-12-18T08:11:06;0.20;99.90
34985;DHT22;21190;58.750;17.004;2022-12-18T08:13:33;0.40;99.90
34985;DHT22;21190;58.750;17.004;2022-12-18T08:16:01;0.40;99.90
34985;DHT22;21190;58.750;17.004;2022-12-18T08:18:28;0.50;99.90
34985;DHT22;21190;58.750;17.004;2022-12-18T08:20:55;0.60;99.90
34985;DHT22;21190;58.750;17.004;2022-12-18T08:23:22;0.60;99.90
34985;DHT22;21190;58.750;17.004;2022-12-18T08:25:54;0.60;99.90
34985;DHT22;21190;58.750;17.004;2022-12-18T08:28:20;0.70;99.90
34985;DHT22;21190;58.750;17.004;2022-12-18T08:30:51;0.70;99.90
34985;DHT22;21190;58.750;17.004;2022-12-18T08:33:18;0.80;99.90
34985;DHT22;21190;58.750;17.004;2022-12-18T08:35:45;0.80;99.90
34985;DHT22;21190;58.750;17.004;2022-12-18T08:38:12;0.90;99.90
34985;DHT22;21190;58.750;17.004;2022-12-18T08:40:39;0.90;99.90
34985;DHT22;21190;58.750;17.004;2022-12-18T08:43:07;0.90;99.90
34985;DHT22;21190;58.750;17.004;2022-12-18T08:45:54;1.00;99.90
34985;DHT22;21190;58.750;17.004;2022-12-18T08:48:21;1.00;99.90
34985;DHT22;21190;58.750;17.004;2022-12-18T08:50:58;1.00;99.90
34985;DHT22;21190;58.750;17.004;2022-12-18T08:53:25;1.00;99.90
34985;DHT22;21190;58.750;17.004;2022-12-18T08:55:59;1.00;99.90
34985;DHT22;21190;58.750;17.004;2022-12-18T08:58:26;1.10;99.90
34985;DHT22;21190;58.750;17.004;2022-12-18T09:00:53;1.10;99.90
34985;DHT22;21190;58.750;17.004;2022-12-18T09:03:20;1.10;99.90
34985;DHT22;21190;58.750;17.004;2022-12-18T09:05:49;1.10;99.90
34985;DHT22;21190;58.750;17.004;2022-12-18T09:08:16;1.10;99.90
34985;DHT22;21190;58.750;17.004;2022-12-18T09:10:47;1.10;99.90
34985;DHT22;21190;58.750;17.004;2022-12-18T09:13:14;1.20;99.90
34985;DHT22;21190;58.750;17.004;2022-12-18T09:15:45;1.10;99.90
34985;DHT22;21190;58.750;17.004;2022-12-18T09:18:13;1.10;99.90
34985;DHT22;21190;58.750;17.004;2022-12-18T09:20:40;1.20;99.90
34985;DHT22;21190;58.750;17.004;2022-12-18T09:23:07;1.20;99.90
34985;DHT22;21190;58.750;17.004;2022-12-18T09:25:34;1.20;99.90
34985;DHT22;21190;58.750;17.004;2022-12-18T09:28:03;1.10;99.90
34985;DHT22;21190;58.750;17.004;2022-12-18T09:30:30;1.20;99.90
34985;DHT22;21190;58.750;17.004;2022-12-18T09:33:00;1.30;99.90
34985;DHT22;21190;58.750;17.004;2022-12-18T09:35:27;1.20;99.90
34985;DHT22;21190;58.750;17.004;2022-12-18T09:37:54;1.30;99.90
34985;DHT22;21190;58.750;17.004;2022-12-18T09:40:22;1.40;99.90
34985;DHT22;21190;58.750;17.004;2022-12-18T09:43:00;1.40;99.90
34985;DHT22;21190;58.750;17.004;2022-12-18T09:45:38;1.40;99.90
34985;DHT22;21190;58.750;17.004;2022-12-18T09:48:09;1.40;99.90
34985;DHT22;21190;58.750;17.004;2022-12-18T09:50:37;1.40;99.90
34985;DHT22;21190;58.750;17.004;2022-12-18T09:53:06;1.40;99.90
34985;DHT22;21190;58.750;17.004;2022-12-18T09:55:37;1.50;99.90
34985;DHT22;21190;58.750;17.004;2022-12-18T09:58:06;1.50;99.90
34985;DHT22;21190;58.750;17.004;2022-12-18T10:00:38;1.50;99.90
34985;DHT22;21190;58.750;17.004;2022-12-18T10:03:09;1.50;99.90
34985;DHT22;21190;58.750;17.004;2022-12-18T10:13:52;1.50;99.90
34985;DHT22;21190;58.750;17.004;2022-12-18T10:16:27;1.60;99.90
34985;DHT22;21190;58.750;17.004;2022-12-18T10:26:55;1.70;99.90
34985;DHT22;21190;58.750;17.004;2022-12-18T10:29:26;1.70;99.90
34985;DHT22;21190;58.750;17.004;2022-12-18T10:31:53;1.60;99.90
34985;DHT22;21190;58.750;17.004;2022-12-18T10:34:33;1.70;99.90
34985;DHT22;21190;58.750;17.004;2022-12-18T10:37:00;1.70;99.90
34985;DHT22;21190;58.750;17.004;2022-12-18T10:39:28;1.70;99.90
34985;DHT22;21190;58.750;17.004;2022-12-18T10:42:29;1.70;99.90
34985;DHT22;21190;58.750;17.004;2022-12-18T10:44:49;1.80;99.90
34985;DHT22;21190;58.750;17.004;2022-12-18T10:47:27;1.80;99.90
34985;DHT22;21190;58.750;17.004;2022-12-18T10:49:54;1.80;99.90
34985;DHT22;21190;58.750;17.004;2022-12-18T10:52:22;1.80;99.90
34985;DHT22;21190;58.750;17.004;2022-12-18T10:55:02;1.90;99.90
34985;DHT22;21190;58.750;17.004;2022-12-18T10:59:57;2.00;99.90
34985;DHT22;21190;58.750;17.004;2022-12-18T11:02:28;2.00;99.90
34985;DHT22;21190;58.750;17.004;2022-12-18T11:05:00;2.00;99.90
34985;DHT22;21190;58.750;17.004;2022-12-18T11:07:40;2.00;99.90
34985;DHT22;21190;58.750;17.004;2022-12-18T11:10:16;2.00;99.90
34985;DHT22;21190;58.750;17.004;2022-12-18T11:12:44;2.00;99.90
34985;DHT22;21190;58.750;17.004;2022-12-18T11:15:15;2.10;99.90
34985;DHT22;21190;58.750;17.004;2022-12-18T11:17:43;2.10;99.90
34985;DHT22;21190;58.750;17.004;2022-12-18T11:20:20;2.00;99.90
34985;DHT22;21190;58.750;17.004;2022-12-18T11:23:22;2.10;99.90
34985;DHT22;21190;58.750;17.004;2022-12-18T11:25:41;2.10;99.90
34985;DHT22;21190;58.750;17.004;2022-12-18T11:29:22;2.10;99.90
34985;DHT22;21190;58.750;17.004;2022-12-18T11:33:41;2.30;99.90
34985;DHT22;21190;58.750;17.004;2022-12-18T11:36:31;2.30;99.90
34985;DHT22;21190;58.750;17.004;2022-12-18T11:38:59;2.30;99.90
34985;DHT22;21190;58.750;17.004;2022-12-18T11:41:50;2.30;99.90
34985;DHT22;21190;58.750;17.004;2022-12-18T11:44:52;2.30;99.90
34985;DHT22;21190;58.750;17.004;2022-12-18T11:50:00;2.40;99.90
34985;DHT22;21190;58.750;17.004;2022-12-18T11:52:35;2.50;99.90
34985;DHT22;21190;58.750;17.004;2022-12-18T11:55:11;2.40;99.90
34985;DHT22;21190;58.750;17.004;2022-12-18T11:57:45;2.40;99.90
34985;DHT22;21190;58.750;17.004;2022-12-18T12:00:16;2.50;99.90
34985;DHT22;21190;58.750;17.004;2022-12-18T12:02:53;2.50;99.90
34985;DHT22;21190;58.750;17.004;2022-12-18T12:05:28;2.60;99.90
34985;DHT22;21190;58.750;17.004;2022-12-18T12:12:59;2.70;99.90
34985;DHT22;21190;58.750;17.004;2022-12-18T12:21:11;2.70;99.90
34985;DHT22;21190;58.750;17.004;2022-12-18T12:23:51;2.60;99.90
34985;DHT22;21190;58.750;17.004;2022-12-18T12:31:30;2.60;99.90
34985;DHT22;21190;58.750;17.004;2022-12-18T12:39:30;2.70;99.90
34985;DHT22;21190;58.750;17.004;2022-12-18T12:41:58;2.70;99.90
34985;DHT22;21190;58.750;17.004;2022-12-18T12:44:44;2.80;99.90
34985;DHT22;21190;58.750;17.004;2022-12-18T12:47:25;2.70;99.90
34985;DHT22;21190;58.750;17.004;2022-12-18T12:49:58;2.80;99.90
34985;DHT22;21190;58.750;17.004;2022-12-18T12:54:57;2.80;99.90
34985;DHT22;21190;58.750;17.004;2022-12-18T12:57:33;2.80;99.90
34985;DHT22;21190;58.750;17.004;2022-12-18T13:00:09;2.80;99.90
34985;DHT22;21190;58.750;17.004;2022-12-18T13:05:09;2.80;99.90
34985;DHT22;21190;58.750;17.004;2022-12-18T13:07:45;2.70;99.90
34985;DHT22;21190;58.750;17.004;2022-12-18T13:12:53;2.80;99.90
34985;DHT22;21190;58.750;17.004;2022-12-18T13:15:42;2.80;99.90
34985;DHT22;21190;58.750;17.004;2022-12-18T13:18:30;2.90;99.90
34985;DHT22;21190;58.750;17.004;2022-12-18T13:23:30;2.80;99.90
34985;DHT22;21190;58.750;17.004;2022-12-18T13:36:55;2.80;99.90
34985;DHT22;21190;58.750;17.004;2022-12-18T13:39:23;2.90;99.90
34985;DHT22;21190;58.750;17.004;2022-12-18T13:44:33;2.90;99.90
34985;DHT22;21190;58.750;17.004;2022-12-18T13:49:51;2.90;99.90
34985;DHT22;21190;58.750;17.004;2022-12-18T13:52:20;2.90;99.90
34985;DHT22;21190;58.750;17.004;2022-12-18T13:54:52;2.80;99.90
34985;DHT22;21190;58.750;17.004;2022-12-18T13:57:31;2.90;99.90
34985;DHT22;21190;58.750;17.004;2022-12-18T13:59:58;2.90;99.90
34985;DHT22;21190;58.750;17.004;2022-12-18T14:02:26;2.80;99.90
34985;DHT22;21190;58.750;17.004;2022-12-18T14:04:54;2.80;99.90
34985;DHT22;21190;58.750;17.004;2022-12-18T14:09:50;2.80;99.90
34985;DHT22;21190;58.750;17.004;2022-12-18T14:12:28;2.80;99.90
34985;DHT22;21190;58.750;17.004;2022-12-18T14:17:50;2.80;99.90
34985;DHT22;21190;58.750;17.004;2022-12-18T14:20:18;2.90;99.90
34985;DHT22;21190;58.750;17.004;2022-12-18T14:22:45;2.90;99.90
34985;DHT22;21190;58.750;17.004;2022-12-18T14:25:14;2.90;99.90
34985;DHT22;21190;58.750;17.004;2022-12-18T14:27:43;2.90;99.90
34985;DHT22;21190;58.750;17.004;2022-12-18T14:30:32;2.90;99.90
34985;DHT22;21190;58.750;17.004;2022-12-18T14:33:10;2.90;99.90
34985;DHT22;21190;58.750;17.004;2022-12-18T14:35:38;3.00;99.90
34985;DHT22;21190;58.750;17.004;2022-12-18T14:40:35;3.00;99.90
34985;DHT22;21190;58.750;17.004;2022-12-18T14:43:02;3.00;99.90
34985;DHT22;21190;58.750;17.004;2022-12-18T14:51:23;3.10;99.90
34985;DHT22;21190;58.750;17.004;2022-12-18T14:53:47;3.10;99.90
34985;DHT22;21190;58.750;17.004;2022-12-18T14:56:23;3.20;99.90
34985;DHT22;21190;58.750;17.004;2022-12-18T14:58:58;3.20;99.90
34985;DHT22;21190;58.750;17.004;2022-12-18T15:01:33;3.20;99.90
34985;DHT22;21190;58.750;17.004;2022-12-18T15:04:01;3.20;99.90
34985;DHT22;21190;58.750;17.004;2022-12-18T15:06:35;3.30;99.90
34985;DHT22;21190;58.750;17.004;2022-12-18T15:09:04;3.30;99.90
34985;DHT22;21190;58.750;17.004;2022-12-18T15:13:58;3.50;99.90
34985;DHT22;21190;58.750;17.004;2022-12-18T15:16:27;3.50;99.90
34985;DHT22;21190;58.750;17.004;2022-12-18T15:18:54;3.50;99.90
34985;DHT22;21190;58.750;17.004;2022-12-18T15:21:21;3.50;99.90
34985;DHT22;21190;58.750;17.004;2022-12-18T15:23:50;3.50;99.90
34985;DHT22;21190;58.750;17.004;2022-12-18T15:26:18;3.50;99.90
34985;DHT22;21190;58.750;17.004;2022-12-18T15:28:47;3.50;99.90
34985;DHT22;21190;58.750;17.004;2022-12-18T15:36:17;3.60;99.90
34985;DHT22;21190;58.750;17.004;2022-12-18T15:38:52;3.60;99.90
34985;DHT22;21190;58.750;17.004;2022-12-18T15:41:21;3.60;99.90
34985;DHT22;21190;58.750;17.004;2022-12-18T15:43:51;3.50;99.90
34985;DHT22;21190;58.750;17.004;2022-12-18T15:46:18;3.60;99.90
34985;DHT22;21190;58.750;17.004;2022-12-18T15:48:53;3.60;99.90
34985;DHT22;21190;58.750;17.004;2022-12-18T15:51:28;3.60;99.90
34985;DHT22;21190;58.750;17.004;2022-12-18T15:53:56;3.60;99.90
34985;DHT22;21190;58.750;17.004;2022-12-18T15:56:26;3.60;99.90
34985;DHT22;21190;58.750;17.004;2022-12-18T15:59:12;3.60;99.90
34985;DHT22;21190;58.750;17.004;2022-12-18T16:01:40;3.60;99.90
34985;DHT22;21190;58.750;17.004;2022-12-18T16:04:15;3.60;99.90
34985;DHT22;21190;58.750;17.004;2022-12-18T16:06:44;3.60;99.90
34985;DHT22;21190;58.750;17.004;2022-12-18T16:09:31;3.70;99.90
34985;DHT22;21190;58.750;17.004;2022-12-18T16:12:01;3.60;99.90
34985;DHT22;21190;58.750;17.004;2022-12-18T16:14:29;3.60;99.90
34985;DHT22;21190;58.750;17.004;2022-12-18T16:17:00;3.60;99.90
34985;DHT22;21190;58.750;17.004;2022-12-18T16:19:28;3.60;99.90
34985;DHT22;21190;58.750;17.004;2022-12-18T16:21:56;3.70;99.90
34985;DHT22;21190;58.750;17.004;2022-12-18T16:24:24;3.60;99.90
34985;DHT22;21190;58.750;17.004;2022-12-18T16:26:52;3.60;99.90
34985;DHT22;21190;58.750;17.004;2022-12-18T16:29:19;3.60;99.90
34985;DHT22;21190;58.750;17.004;2022-12-18T16:31:54;3.60;99.90
34985;DHT22;21190;58.750;17.004;2022-12-18T16:34:22;3.60;99.90
34985;DHT22;21190;58.750;17.004;2022-12-18T16:36:55;3.60;99.90
34985;DHT22;21190;58.750;17.004;2022-12-18T16:39:30;3.70;99.90
34985;DHT22;21190;58.750;17.004;2022-12-18T16:41:58;3.70;99.90
34985;DHT22;21190;58.750;17.004;2022-12-18T16:44:27;3.70;99.90
34985;DHT22;21190;58.750;17.004;2022-12-18T16:46:55;3.70;99.90
34985;DHT22;21190;58.750;17.004;2022-12-18T16:49:28;3.70;99.90
34985;DHT22;21190;58.750;17.004;2022-12-18T16:51:55;3.70;99.90
34985;DHT22;21190;58.750;17.004;2022-12-18T16:54:22;3.70;99.90
34985;DHT22;21190;58.750;17.004;2022-12-18T16:56:49;3.60;99.90
34985;DHT22;21190;58.750;17.004;2022-12-18T16:59:16;3.60;99.90
34985;DHT22;21190;58.750;17.004;2022-12-18T17:01:43;3.60;99.90
34985;DHT22;21190;58.750;17.004;2022-12-18T17:04:11;3.60;99.90
34985;DHT22;21190;58.750;17.004;2022-12-18T17:06:39;3.60;99.90
34985;DHT22;21190;58.750;17.004;2022-12-18T17:09:07;3.60;99.90
34985;DHT22;21190;58.750;17.004;2022-12-18T17:11:42;3.60;99.90
34985;DHT22;21190;58.750;17.004;2022-12-18T17:14:13;3.50;99.90
34985;DHT22;21190;58.750;17.004;2022-12-18T17:16:41;3.50;99.90
34985;DHT22;21190;58.750;17.004;2022-12-18T17:19:07;3.40;99.90
34985;DHT22;21190;58.750;17.004;2022-12-18T17:21:43;3.40;99.90
34985;DHT22;21190;58.750;17.004;2022-12-18T17:24:09;3.40;99.90
34985;DHT22;21190;58.750;17.004;2022-12-18T17:26:36;3.40;99.90
34985;DHT22;21190;58.750;17.004;2022-12-18T17:29:04;3.40;99.90
34985;DHT22;21190;58.750;17.004;2022-12-18T17:31:32;3.40;99.90
34985;DHT22;21190;58.750;17.004;2022-12-18T17:34:00;3.40;99.90